createdAt,value
2018-07-22T00:02:10.768Z,4.43
2018-07-22T00:04:39.195Z,3.83
2018-07-22T00:07:07.667Z,3.90
2018-07-22T00:09:36.089Z,3.80
2018-07-22T00:12:04.552Z,4.50
2018-07-22T00:14:33.031Z,4.83
2018-07-22T00:17:01.496Z,3.70
2018-07-22T00:19:29.946Z,4.33
2018-07-22T00:21:58.355Z,3.60
2018-07-22T00:24:26.790Z,3.73
2018-07-22T00:26:55.301Z,3.97
2018-07-22T00:29:23.737Z,3.67
2018-07-22T00:31:52.180Z,3.40
2018-07-22T00:34:20.650Z,2.97
2018-07-22T00:36:49.065Z,5.07
2018-07-22T00:39:17.879Z,4.23
2018-07-22T00:41:46.702Z,3.63
2018-07-22T00:44:15.162Z,3.90
2018-07-22T00:46:43.587Z,4.23
2018-07-22T00:49:12.017Z,3.43
2018-07-22T00:51:40.531Z,4.00
2018-07-22T00:54:08.966Z,4.10
2018-07-22T00:56:37.476Z,3.70
2018-07-22T00:59:05.921Z,4.00
2018-07-22T01:01:34.355Z,3.90
2018-07-22T01:04:02.810Z,4.63
2018-07-22T01:06:31.284Z,3.97
2018-07-22T01:08:59.719Z,4.00
2018-07-22T01:11:28.188Z,4.30
2018-07-22T01:13:56.624Z,4.53
2018-07-22T01:16:25.082Z,4.53
2018-07-22T01:18:53.553Z,4.03
2018-07-22T01:21:22.372Z,5.03
2018-07-22T01:23:51.167Z,5.10
2018-07-22T01:26:19.648Z,4.90
2018-07-22T01:28:48.067Z,5.73
2018-07-22T01:31:16.516Z,3.93
2018-07-22T01:33:44.956Z,4.43
2018-07-22T01:36:13.424Z,4.90
2018-07-22T01:38:41.855Z,5.47
2018-07-22T01:41:10.284Z,4.40
2018-07-22T01:43:38.736Z,4.83
2018-07-22T01:46:07.264Z,4.60
2018-07-22T01:48:35.678Z,4.20
2018-07-22T01:51:04.443Z,5.00
2018-07-22T01:53:32.868Z,5.47
2018-07-22T01:56:01.304Z,4.90
2018-07-22T01:58:29.723Z,4.90
2018-07-22T02:00:58.203Z,4.73
2018-07-22T02:03:26.631Z,4.00
2018-07-22T02:05:55.082Z,4.50
2018-07-22T02:08:23.521Z,5.43
2018-07-22T02:10:52.045Z,4.40
2018-07-22T02:13:20.476Z,5.37
2018-07-22T02:15:48.957Z,5.70
2018-07-22T02:18:17.411Z,5.00
2018-07-22T02:20:45.858Z,4.90
2018-07-22T02:23:14.470Z,5.70
2018-07-22T02:25:44.960Z,5.30
2018-07-22T02:28:13.395Z,6.07
2018-07-22T02:30:41.875Z,6.07
2018-07-22T02:33:10.310Z,6.23
2018-07-22T02:35:38.770Z,6.03
2018-07-22T02:38:07.165Z,5.73
2018-07-22T02:40:35.671Z,5.70
2018-07-22T02:43:04.140Z,4.83
2018-07-22T02:45:32.799Z,4.50
2018-07-22T02:48:01.235Z,4.93
2018-07-22T02:50:29.638Z,5.30
2018-07-22T02:52:58.061Z,6.30
2018-07-22T02:55:26.523Z,4.97
2018-07-22T02:57:54.978Z,6.30
2018-07-22T03:00:23.383Z,5.47
2018-07-22T03:02:51.887Z,5.70
2018-07-22T03:05:20.323Z,6.03
2018-07-22T03:07:48.767Z,5.90
2018-07-22T03:10:17.222Z,5.10
2018-07-22T03:12:45.657Z,5.53
2018-07-22T03:15:14.112Z,5.60
2018-07-22T03:17:42.562Z,5.40
2018-07-22T03:20:10.991Z,5.50
2018-07-22T03:22:39.428Z,6.10
2018-07-22T03:25:07.906Z,6.40
2018-07-22T03:27:36.376Z,6.30
2018-07-22T03:30:05.498Z,7.30
2018-07-22T03:32:33.916Z,6.10
2018-07-22T03:35:02.351Z,6.90
2018-07-22T03:37:30.776Z,5.77
2018-07-22T03:39:59.220Z,6.30
2018-07-22T03:42:28.020Z,6.40
2018-07-22T03:44:56.480Z,7.20
2018-07-22T03:47:25.101Z,6.20
2018-07-22T03:49:53.668Z,6.67
2018-07-22T03:52:22.128Z,7.20
2018-07-22T03:54:50.577Z,6.90
2018-07-22T03:57:19.164Z,6.17
2018-07-22T03:59:47.627Z,6.20
2018-07-22T04:02:16.089Z,5.97
2018-07-22T04:04:44.743Z,7.93
2018-07-22T04:07:13.176Z,6.67
2018-07-22T04:09:41.606Z,7.10
2018-07-22T04:12:10.078Z,7.57
2018-07-22T04:14:38.529Z,7.27
2018-07-22T04:17:07.240Z,7.60
2018-07-22T04:19:35.660Z,6.00
2018-07-22T04:22:04.116Z,7.33
2018-07-22T04:24:32.552Z,6.10
2018-07-22T04:27:01.346Z,6.13
2018-07-22T04:29:29.764Z,7.00
2018-07-22T04:31:58.248Z,5.90
2018-07-22T04:34:26.664Z,7.30
2018-07-22T04:36:55.114Z,7.43
2018-07-22T04:39:23.551Z,6.63
2018-07-22T04:41:51.978Z,7.10
2018-07-22T04:44:20.472Z,7.03
2018-07-22T04:46:48.912Z,7.37
2018-07-22T04:49:17.362Z,6.30
2018-07-22T04:51:45.813Z,7.83
2018-07-22T04:54:14.352Z,7.70
2018-07-22T04:56:42.788Z,8.37
2018-07-22T04:59:11.237Z,8.20
2018-07-22T05:01:39.656Z,7.77
2018-07-22T05:04:08.071Z,5.43
2018-07-22T05:06:36.490Z,6.90
2018-07-22T05:09:07.869Z,7.37
2018-07-22T05:11:36.308Z,7.23
2018-07-22T05:14:04.756Z,6.40
2018-07-22T05:16:33.290Z,7.23
2018-07-22T05:19:01.731Z,8.03
2018-07-22T05:21:30.160Z,8.50
2018-07-22T05:23:58.586Z,6.83
2018-07-22T05:26:27.030Z,7.83
2018-07-22T05:28:55.434Z,6.10
2018-07-22T05:31:23.915Z,6.40
2018-07-22T05:33:52.334Z,7.67
2018-07-22T05:36:20.769Z,7.33
2018-07-22T05:38:49.224Z,7.60
2018-07-22T05:41:17.639Z,7.73
2018-07-22T05:43:46.089Z,6.90
2018-07-22T05:46:14.537Z,8.20
2018-07-22T05:48:43.338Z,7.57
2018-07-22T05:51:11.819Z,7.77
2018-07-22T05:53:40.278Z,7.10
2018-07-22T05:56:08.728Z,8.67
2018-07-22T05:58:37.208Z,7.57
2018-07-22T06:01:05.672Z,6.93
2018-07-22T06:03:34.122Z,6.33
2018-07-22T06:06:02.592Z,7.83
2018-07-22T06:08:31.821Z,6.17
2018-07-22T06:11:00.269Z,7.27
2018-07-22T06:13:28.690Z,6.73
2018-07-22T06:15:57.141Z,6.97
2018-07-22T06:18:25.605Z,8.10
2018-07-22T06:20:54.087Z,7.00
2018-07-22T06:23:22.526Z,6.33
2018-07-22T06:25:51.175Z,5.60
2018-07-22T06:28:19.660Z,5.97
2018-07-22T06:30:48.091Z,6.73
2018-07-22T06:33:16.525Z,4.77
2018-07-22T06:35:45.009Z,6.40
2018-07-22T06:38:13.455Z,5.70
2018-07-22T06:40:41.893Z,6.23
2018-07-22T06:43:10.481Z,4.90
2018-07-22T06:45:38.944Z,5.40
2018-07-22T06:48:07.393Z,5.80
2018-07-22T06:50:35.822Z,5.30
2018-07-22T06:53:04.341Z,5.87
2018-07-22T06:55:32.797Z,5.73
2018-07-22T06:58:01.593Z,4.97
2018-07-22T07:00:30.042Z,4.97
2018-07-22T07:02:58.491Z,4.83
2018-07-22T07:05:26.935Z,5.50
2018-07-22T07:07:55.587Z,4.80
2018-07-22T07:10:24.371Z,4.50
2018-07-22T07:12:52.849Z,5.60
2018-07-22T07:15:21.326Z,4.63
2018-07-22T07:17:49.760Z,4.57
2018-07-22T07:20:18.196Z,5.70
2018-07-22T07:22:46.664Z,4.70
2018-07-22T07:25:15.130Z,5.10
2018-07-22T07:27:43.575Z,4.67
2018-07-22T07:30:12.416Z,6.03
2018-07-22T07:32:40.885Z,4.20
2018-07-22T07:35:09.345Z,4.80
2018-07-22T07:37:37.799Z,4.63
2018-07-22T07:40:06.500Z,4.93
2018-07-22T07:42:34.996Z,5.00
2018-07-22T07:45:03.641Z,4.23
2018-07-22T07:47:32.479Z,4.47
2018-07-22T07:50:01.121Z,4.43
2018-07-22T07:52:29.588Z,4.70
2018-07-22T07:54:58.014Z,4.67
2018-07-22T07:57:26.472Z,4.50
2018-07-22T07:59:54.962Z,4.33
2018-07-22T08:02:24.812Z,3.90
2018-07-22T08:04:53.261Z,4.00
2018-07-22T08:07:21.706Z,3.97
2018-07-22T08:09:50.542Z,4.63
2018-07-22T08:12:19.032Z,4.10
2018-07-22T08:14:47.456Z,4.10
2018-07-22T08:17:15.961Z,4.13
2018-07-22T08:19:44.411Z,4.93
2018-07-22T08:22:12.937Z,4.20
2018-07-22T08:24:41.764Z,3.47
2018-07-22T08:27:10.330Z,3.60
2018-07-22T08:29:38.795Z,4.20
2018-07-22T08:32:07.416Z,4.10
2018-07-22T08:34:35.867Z,3.70
2018-07-22T08:37:04.296Z,3.97
2018-07-22T08:39:33.391Z,4.93
2018-07-22T08:42:01.981Z,4.27
2018-07-22T08:44:30.443Z,4.00
2018-07-22T08:46:58.936Z,4.80
2018-07-22T08:49:27.504Z,4.90
2018-07-22T08:51:56.314Z,4.30
2018-07-22T08:54:24.781Z,4.33
2018-07-22T08:56:53.236Z,4.53
2018-07-22T08:59:21.723Z,4.30
2018-07-22T09:01:50.175Z,4.13
2018-07-22T09:04:18.997Z,3.90
2018-07-22T09:06:47.447Z,3.40
2018-07-22T09:09:15.887Z,4.17
2018-07-22T09:11:44.518Z,4.10
2018-07-22T09:14:13.502Z,4.03
2018-07-22T09:16:41.966Z,3.43
2018-07-22T09:19:10.447Z,3.67
2018-07-22T09:21:38.886Z,3.70
2018-07-22T09:24:07.390Z,4.80
2018-07-22T09:26:35.885Z,4.70
2018-07-22T09:29:04.402Z,3.80
2018-07-22T09:31:32.848Z,3.87
2018-07-22T09:34:01.370Z,3.53
2018-07-22T09:36:30.206Z,3.60
2018-07-22T09:38:58.873Z,4.53
2018-07-22T09:41:27.424Z,3.73
2018-07-22T09:43:55.861Z,4.10
2018-07-22T09:46:24.338Z,3.90
2018-07-22T09:48:52.824Z,4.80
2018-07-22T09:51:21.298Z,4.47
2018-07-22T09:53:49.855Z,4.03
2018-07-22T09:56:18.768Z,3.70
2018-07-22T09:58:47.227Z,4.20
2018-07-22T10:01:15.697Z,3.90
2018-07-22T10:03:44.320Z,5.20
2018-07-22T10:06:12.905Z,4.50
2018-07-22T10:08:41.397Z,4.00
2018-07-22T10:11:09.833Z,4.57
2018-07-22T10:13:38.460Z,4.47
2018-07-22T10:16:06.898Z,4.07
2018-07-22T10:18:35.375Z,4.60
2018-07-22T10:21:03.828Z,4.10
2018-07-22T10:23:32.315Z,4.23
2018-07-22T10:26:00.764Z,3.97
2018-07-22T10:28:29.203Z,4.50
2018-07-22T10:30:58.143Z,4.20
2018-07-22T10:33:26.608Z,4.40
2018-07-22T10:35:55.148Z,4.20
2018-07-22T10:38:23.753Z,4.90
2018-07-22T10:40:52.256Z,4.33
2018-07-22T10:43:20.913Z,5.20
2018-07-22T10:45:49.502Z,4.33
2018-07-22T10:48:18.030Z,3.87
2018-07-22T10:50:46.567Z,4.07
2018-07-22T10:53:15.029Z,4.43
2018-07-22T10:55:43.647Z,4.13
2018-07-22T10:58:12.892Z,4.60
2018-07-22T11:00:41.687Z,4.30
2018-07-22T11:03:10.201Z,4.33
2018-07-22T11:05:38.834Z,3.80
2018-07-22T11:08:07.312Z,4.23
2018-07-22T11:10:35.761Z,3.50
2018-07-22T11:13:04.242Z,4.50
2018-07-22T11:15:32.705Z,4.30
2018-07-22T11:18:01.151Z,4.67
2018-07-22T11:20:29.648Z,5.73
2018-07-22T11:22:58.111Z,4.73
2018-07-22T11:25:26.566Z,4.70
2018-07-22T11:27:55.001Z,4.40
2018-07-22T11:30:23.507Z,3.77
2018-07-22T11:32:51.972Z,4.00
2018-07-22T11:35:20.466Z,5.43
2018-07-22T11:37:48.906Z,4.90
2018-07-22T11:40:17.365Z,4.27
2018-07-22T11:42:45.816Z,3.97
2018-07-22T11:45:14.250Z,4.40
2018-07-22T11:47:42.835Z,6.10
2018-07-22T11:50:11.300Z,4.60
2018-07-22T11:52:39.734Z,3.97
2018-07-22T11:55:08.185Z,4.37
2018-07-22T11:57:36.679Z,4.60
2018-07-22T12:00:05.786Z,4.37
2018-07-22T12:02:34.558Z,4.07
2018-07-22T12:05:03.070Z,5.03
2018-07-22T12:07:31.533Z,4.87
2018-07-22T12:09:59.964Z,3.43
2018-07-22T12:12:28.431Z,3.50
2018-07-22T12:14:57.585Z,4.83
2018-07-22T12:17:26.123Z,4.40
2018-07-22T12:19:54.713Z,4.00
2018-07-22T12:22:24.259Z,3.90
2018-07-22T12:24:52.899Z,4.20
2018-07-22T12:27:21.396Z,4.17
2018-07-22T12:29:49.978Z,4.50
2018-07-22T12:32:18.405Z,3.73
2018-07-22T12:34:46.978Z,4.07
2018-07-22T12:37:15.508Z,4.17
2018-07-22T12:39:43.945Z,5.73
2018-07-22T12:42:12.503Z,4.10
2018-07-22T12:44:41.000Z,3.77
2018-07-22T12:47:09.442Z,4.40
2018-07-22T12:49:37.982Z,4.17
2018-07-22T12:52:06.552Z,3.90
2018-07-22T12:54:34.987Z,5.20
2018-07-22T12:57:03.452Z,5.40
2018-07-22T12:59:38.158Z,4.40
2018-07-22T13:02:06.804Z,4.33
2018-07-22T13:04:35.257Z,4.57
2018-07-22T13:07:03.770Z,4.23
2018-07-22T13:09:32.272Z,5.33
2018-07-22T13:12:00.723Z,4.30
2018-07-22T13:14:29.412Z,4.30
2018-07-22T13:16:57.975Z,4.50
2018-07-22T13:19:26.431Z,4.63
2018-07-22T13:21:54.872Z,5.00
2018-07-22T13:24:23.497Z,6.20
2018-07-22T13:26:51.949Z,4.40
2018-07-22T13:29:20.422Z,4.37
2018-07-22T13:31:49.182Z,4.60
2018-07-22T13:34:17.625Z,4.13
2018-07-22T13:36:46.065Z,4.60
2018-07-22T13:39:14.525Z,4.87
2018-07-22T13:41:42.975Z,4.40
2018-07-22T13:44:11.447Z,5.70
2018-07-22T13:46:40.065Z,5.33
2018-07-22T13:49:08.509Z,5.00
2018-07-22T13:51:37.017Z,4.30
2018-07-22T13:54:05.570Z,4.17
2018-07-22T13:56:34.020Z,4.80
2018-07-22T13:59:02.617Z,4.33
2018-07-22T14:01:31.070Z,5.83
2018-07-22T14:03:59.493Z,4.70
2018-07-22T14:06:27.929Z,5.50
2018-07-22T14:08:56.452Z,5.37
2018-07-22T14:11:24.884Z,4.77
2018-07-22T14:13:53.619Z,5.40
2018-07-22T14:16:22.279Z,4.07
2018-07-22T14:18:50.803Z,5.23
2018-07-22T14:21:19.238Z,5.70
2018-07-22T14:23:47.693Z,5.60
2018-07-22T14:26:16.183Z,4.50
2018-07-22T14:28:44.684Z,5.50
2018-07-22T14:31:13.132Z,5.40
2018-07-22T14:33:41.568Z,5.73
2018-07-22T14:36:10.087Z,4.80
2018-07-22T14:38:39.440Z,5.10
2018-07-22T14:41:08.042Z,5.50
2018-07-22T14:43:36.623Z,4.60
2018-07-22T14:46:05.507Z,4.33
2018-07-22T14:48:33.932Z,5.80
2018-07-22T14:51:02.397Z,4.87
2018-07-22T14:53:30.862Z,5.30
2018-07-22T14:55:59.536Z,5.30
2018-07-22T14:58:28.032Z,5.87
2018-07-22T15:00:56.881Z,4.00
2018-07-22T15:03:25.653Z,6.37
2018-07-22T15:05:54.078Z,5.73
2018-07-22T15:08:22.711Z,4.90
2018-07-22T15:10:51.168Z,5.50
2018-07-22T15:13:19.626Z,5.50
2018-07-22T15:15:48.112Z,5.40
2018-07-22T15:18:16.570Z,5.83
2018-07-22T15:20:45.023Z,5.00
2018-07-22T15:23:13.535Z,5.33
2018-07-22T15:25:42.012Z,6.20
2018-07-22T15:28:10.585Z,5.90
2018-07-22T15:30:39.172Z,5.13
2018-07-22T15:33:07.708Z,5.53
2018-07-22T15:35:36.162Z,6.10
2018-07-22T15:38:04.603Z,5.87
2018-07-22T15:40:33.331Z,5.70
2018-07-22T15:43:02.255Z,5.10
2018-07-22T15:45:30.906Z,5.57
2018-07-22T15:47:59.349Z,6.07
2018-07-22T15:50:27.874Z,6.70
2018-07-22T15:52:56.400Z,5.30
2018-07-22T15:55:25.083Z,5.30
2018-07-22T15:57:53.602Z,5.40
2018-07-22T16:00:22.264Z,7.00
2018-07-22T16:02:50.739Z,5.00
2018-07-22T16:05:19.218Z,5.83
2018-07-22T16:07:47.990Z,6.23
2018-07-22T16:10:16.542Z,5.00
2018-07-22T16:12:45.458Z,4.97
2018-07-22T16:15:13.951Z,5.10
2018-07-22T16:17:42.547Z,5.07
2018-07-22T16:20:10.997Z,5.40
2018-07-22T16:22:39.913Z,4.60
2018-07-22T16:25:08.408Z,4.80
2018-07-22T16:27:36.885Z,5.57
2018-07-22T16:30:06.316Z,5.03
2018-07-22T16:32:35.001Z,6.03
2018-07-22T16:35:03.525Z,6.20
2018-07-22T16:37:32.155Z,5.30
2018-07-22T16:40:00.610Z,5.67
2018-07-22T16:42:29.075Z,6.47
2018-07-22T16:44:57.542Z,5.07
2018-07-22T16:47:26.047Z,4.87
2018-07-22T16:49:54.497Z,5.63
2018-07-22T16:52:22.953Z,5.63
2018-07-22T16:54:51.415Z,6.60
2018-07-22T16:57:19.865Z,6.77
2018-07-22T16:59:48.295Z,5.93
2018-07-22T17:02:16.842Z,6.83
2018-07-22T17:04:45.390Z,6.10
2018-07-22T17:07:13.907Z,6.50
2018-07-22T17:09:42.687Z,5.67
2018-07-22T17:12:11.135Z,5.60
2018-07-22T17:14:39.594Z,5.83
2018-07-22T17:17:08.180Z,5.93
2018-07-22T17:19:36.832Z,5.60
2018-07-22T17:22:05.350Z,5.93
2018-07-22T17:24:33.919Z,5.90
2018-07-22T17:27:02.399Z,5.60
2018-07-22T17:29:30.855Z,6.60
2018-07-22T17:31:59.664Z,6.20
2018-07-22T17:34:28.174Z,5.83
2018-07-22T17:36:56.687Z,6.40
2018-07-22T17:39:25.269Z,6.40
2018-07-22T17:41:53.864Z,7.10
2018-07-22T17:44:22.558Z,5.93
2018-07-22T17:46:51.090Z,6.23
2018-07-22T17:49:19.593Z,7.27
2018-07-22T17:51:48.055Z,6.20
2018-07-22T17:54:16.504Z,6.23
2018-07-22T17:56:44.943Z,6.23
2018-07-22T17:59:13.449Z,6.63
2018-07-22T18:01:42.099Z,6.80
2018-07-22T18:04:10.581Z,6.47
2018-07-22T18:06:39.039Z,7.13
2018-07-22T18:09:08.675Z,5.90
2018-07-22T18:11:37.169Z,6.57
2018-07-22T18:14:05.816Z,6.90
2018-07-22T18:16:36.144Z,6.37
2018-07-22T18:19:04.619Z,6.83
2018-07-22T18:21:33.158Z,7.50
2018-07-22T18:24:01.623Z,6.47
2018-07-22T18:26:30.057Z,6.60
2018-07-22T18:28:58.753Z,7.40
2018-07-22T18:31:27.204Z,6.30
2018-07-22T18:33:55.745Z,6.73
2018-07-22T18:36:24.195Z,6.97
2018-07-22T18:38:52.682Z,6.40
2018-07-22T18:41:21.468Z,6.50
2018-07-22T18:43:50.047Z,7.63
2018-07-22T18:46:18.632Z,7.57
2018-07-22T18:48:47.098Z,6.93
2018-07-22T18:51:15.724Z,6.77
2018-07-22T18:53:44.274Z,7.70
2018-07-22T18:56:12.707Z,6.73
2018-07-22T18:58:41.127Z,7.37
2018-07-22T19:01:09.572Z,6.83
2018-07-22T19:03:38.143Z,7.13
2018-07-22T19:06:06.592Z,5.97
2018-07-22T19:08:35.721Z,6.93
2018-07-22T19:11:04.577Z,5.97
2018-07-22T19:13:33.012Z,6.40
2018-07-22T19:16:01.464Z,6.70
2018-07-22T19:18:29.935Z,6.50
2018-07-22T19:20:58.416Z,6.77
2018-07-22T19:23:27.302Z,6.80
2018-07-22T19:25:55.770Z,7.43
2018-07-22T19:28:24.214Z,6.57
2018-07-22T19:30:52.732Z,6.13
2018-07-22T19:33:21.362Z,6.37
2018-07-22T19:35:50.172Z,6.73
2018-07-22T19:38:18.679Z,6.80
2018-07-22T19:40:47.409Z,7.30
2018-07-22T19:43:15.859Z,7.27
2018-07-22T19:45:44.284Z,6.13
2018-07-22T19:48:19.158Z,5.63
2018-07-22T19:50:47.629Z,6.40
2018-07-22T19:53:16.148Z,6.80
2018-07-22T19:55:44.260Z,7.80
2018-07-22T19:58:12.814Z,6.97
2018-07-22T20:00:41.952Z,6.47
2018-07-22T20:03:10.948Z,7.20
2018-07-22T20:05:39.401Z,6.60
2018-07-22T20:08:07.936Z,6.40
2018-07-22T20:10:36.340Z,5.60
2018-07-22T20:13:04.829Z,5.23
2018-07-22T20:15:33.637Z,5.80
2018-07-22T20:18:02.178Z,4.40
2018-07-22T20:20:30.669Z,4.57
2018-07-22T20:22:59.115Z,5.20
2018-07-22T20:25:27.925Z,3.80
2018-07-22T20:27:56.367Z,4.83
2018-07-22T20:30:24.818Z,3.63
2018-07-22T20:32:53.310Z,4.90
2018-07-22T20:35:21.883Z,4.53
2018-07-22T20:37:50.352Z,3.90
2018-07-22T20:40:19.204Z,3.50
2018-07-22T20:42:48.687Z,4.70
2018-07-22T20:45:18.032Z,4.33
2018-07-22T20:47:50.040Z,4.03
2018-07-22T20:50:18.834Z,4.07
2018-07-22T20:52:47.293Z,3.77
2018-07-22T20:55:15.723Z,3.40
2018-07-22T20:57:44.182Z,3.53
2018-07-22T21:00:13.145Z,4.20
2018-07-22T21:02:41.622Z,4.27
2018-07-22T21:05:10.043Z,3.53
2018-07-22T21:07:38.469Z,3.53
2018-07-22T21:10:06.933Z,3.50
2018-07-22T21:12:47.759Z,4.07
2018-07-22T21:15:17.036Z,3.70
2018-07-22T21:17:46.795Z,4.23
2018-07-22T21:20:16.195Z,3.90
2018-07-22T21:22:44.664Z,4.27
2018-07-22T21:25:13.663Z,3.50
2018-07-22T21:27:42.179Z,3.87
2018-07-22T21:30:11.634Z,4.17
2018-07-22T21:32:40.579Z,3.70
2018-07-22T21:35:09.135Z,4.33
2018-07-22T21:37:37.734Z,3.40
2018-07-22T21:40:06.345Z,3.60
2018-07-22T21:42:34.898Z,4.30
2018-07-22T21:45:04.249Z,3.17
2018-07-22T21:47:32.866Z,3.80
2018-07-22T21:50:01.286Z,4.20
2018-07-22T21:52:29.719Z,3.80
2018-07-22T21:54:58.169Z,4.77
2018-07-22T21:57:26.634Z,4.33
2018-07-22T21:59:55.113Z,3.60
2018-07-22T22:02:28.732Z,4.40
2018-07-22T22:04:57.235Z,3.93
2018-07-22T22:07:25.925Z,4.50
2018-07-22T22:09:54.453Z,4.60
2018-07-22T22:12:23.418Z,4.77
2018-07-22T22:14:52.120Z,4.27
2018-07-22T22:17:20.555Z,4.50
2018-07-22T22:19:48.959Z,3.70
2018-07-22T22:22:17.449Z,3.70
2018-07-22T22:24:45.902Z,3.33
2018-07-22T22:27:14.535Z,3.33
2018-07-22T22:29:43.166Z,3.73
2018-07-22T22:32:11.782Z,3.50
2018-07-22T22:34:40.388Z,3.77
2018-07-22T22:37:08.838Z,3.90
2018-07-22T22:39:37.293Z,3.10
2018-07-22T22:42:05.819Z,4.00
2018-07-22T22:44:34.271Z,3.37
2018-07-22T22:47:02.732Z,3.80
2018-07-22T22:49:31.208Z,3.70
2018-07-22T22:51:59.662Z,3.20
2018-07-22T22:54:28.107Z,3.30
2018-07-22T22:56:56.588Z,3.27
2018-07-22T22:59:24.998Z,4.00
2018-07-22T23:01:53.786Z,3.30
2018-07-22T23:04:22.230Z,3.90
2018-07-22T23:06:50.690Z,3.50
2018-07-22T23:09:19.136Z,3.23
2018-07-22T23:11:47.620Z,3.50
2018-07-22T23:14:16.081Z,4.27
2018-07-22T23:16:44.530Z,4.87
2018-07-22T23:19:13.016Z,5.20
2018-07-22T23:21:41.451Z,3.97
2018-07-22T23:24:09.855Z,4.20
2018-07-22T23:26:38.317Z,3.87
2018-07-22T23:29:06.770Z,6.13
2018-07-22T23:31:35.230Z,4.43
2018-07-22T23:34:03.685Z,4.30
2018-07-22T23:36:32.354Z,4.80
2018-07-22T23:39:00.795Z,4.97
2018-07-22T23:41:29.239Z,3.90
2018-07-22T23:43:57.690Z,5.20
2018-07-22T23:46:26.124Z,6.70
2018-07-22T23:48:54.618Z,4.80
2018-07-22T23:51:23.053Z,5.57
2018-07-22T23:53:51.504Z,4.83
2018-07-22T23:56:19.955Z,5.90
2018-07-22T23:58:48.419Z,5.63
